UAL1984 KEWR-MDSD
Flight info
| Callsign | UAL1984 |
|---|---|
| Flight time | N/A |
| Altitude | 41000 |
| Route | ELVAE DCT NECCK DCT DIXIE Y481 OHRYN/N0491F400 Y488 WEBBB/M084F400 Y488 HOBOH/M084F410 Y488 CHUBY/M084F400 Y488 SAUCR/M084F410 L453 LAMER/N0479F410 L453 RODRK/N0481F400 DCT POKEG UT17 KOBET |
| Aircraft | B772/H-SDE2E3FGHIJ5LORVWXY/LB1D1 |
Departure
| Time | 2026-05-03 20:35 |
|---|---|
| Airport | Newark Liberty International Airport (KEWR) |
Arrival
| Time | N/A |
|---|---|
| Airport | Las Américas International Airport (MDSD) |
| Time | Latitude | Longitude | Altitude | Speed | Heading |
|---|---|---|---|---|---|
| 2026-05-03 20:16 | 40.69400 | -74.17362 | 26 ft | 0 kts | 13° |
| 2026-05-03 20:27 | 40.69385 | -74.17368 | 25 ft | 3 kts | 27° |
| 2026-05-03 20:28 | 40.69367 | -74.17382 | 26 ft | 3 kts | 35° |
| 2026-05-03 20:28 | 40.69352 | -74.17399 | 25 ft | 3 kts | 67° |
| 2026-05-03 20:28 | 40.69352 | -74.17382 | 25 ft | 3 kts | 90° |
| 2026-05-03 20:28 | 40.69352 | -74.17379 | 25 ft | 0 kts | 91° |
| 2026-05-03 20:31 | 40.69350 | -74.17368 | 24 ft | 7 kts | 108° |
| 2026-05-03 20:32 | 40.69312 | -74.17301 | 26 ft | 6 kts | 128° |
| 2026-05-03 20:32 | 40.69305 | -74.17289 | 25 ft | 1 kts | 127° |
| 2026-05-03 20:32 | 40.69300 | -74.17280 | 26 ft | 1 kts | 127° |
| 2026-05-03 20:32 | 40.69264 | -74.17208 | 26 ft | 14 kts | 119° |
| 2026-05-03 20:33 | 40.69223 | -74.17094 | 26 ft | 14 kts | 102° |
| 2026-05-03 20:33 | 40.69279 | -74.17002 | 25 ft | 14 kts | 29° |
| 2026-05-03 20:33 | 40.69394 | -74.16926 | 27 ft | 24 kts | 26° |
| 2026-05-03 20:33 | 40.69558 | -74.16822 | 27 ft | 26 kts | 26° |
| 2026-05-03 20:34 | 40.69721 | -74.16718 | 31 ft | 26 kts | 25° |
| 2026-05-03 20:34 | 40.69883 | -74.16616 | 28 ft | 25 kts | 26° |
| 2026-05-03 20:34 | 40.69982 | -74.16470 | 27 ft | 21 kts | 102° |
| 2026-05-03 20:34 | 40.69880 | -74.16452 | 27 ft | 11 kts | 204° |
| 2026-05-03 20:35 | 40.69660 | -74.16593 | 26 ft | 73 kts | 207° |
| 2026-05-03 20:35 | 40.68973 | -74.17036 | 31 ft | 148 kts | 207° |
| 2026-05-03 20:35 | 40.67931 | -74.17635 | 650 ft | 168 kts | 211° |
| 2026-05-03 20:35 | 40.67013 | -74.18446 | 1659 ft | 153 kts | 232° |
| 2026-05-03 20:36 | 40.66126 | -74.19182 | 2255 ft | 162 kts | 194° |
| 2026-05-03 20:36 | 40.64962 | -74.18891 | 2551 ft | 185 kts | 171° |
| 2026-05-03 20:36 | 40.63631 | -74.18934 | 2532 ft | 204 kts | 212° |
| 2026-05-03 20:36 | 40.62418 | -74.20061 | 2529 ft | 225 kts | 225° |
| 2026-05-03 20:37 | 40.61138 | -74.21334 | 2471 ft | 235 kts | 221° |
| 2026-05-03 20:37 | 40.59764 | -74.22647 | 2889 ft | 250 kts | 221° |
| 2026-05-03 20:37 | 40.58504 | -74.23851 | 3616 ft | 253 kts | 222° |
| 2026-05-03 20:37 | 40.57091 | -74.25205 | 4429 ft | 257 kts | 222° |
| 2026-05-03 20:38 | 40.55588 | -74.26567 | 5136 ft | 262 kts | 213° |
| 2026-05-03 20:38 | 40.53747 | -74.27105 | 5703 ft | 283 kts | 179° |
| 2026-05-03 20:38 | 40.51829 | -74.26409 | 6022 ft | 294 kts | 162° |
| 2026-05-03 20:38 | 40.49906 | -74.25406 | 5996 ft | 297 kts | 162° |
| 2026-05-03 20:39 | 40.48003 | -74.24413 | 5998 ft | 293 kts | 162° |
| 2026-05-03 20:39 | 40.46115 | -74.23440 | 5990 ft | 291 kts | 162° |
| 2026-05-03 20:39 | 40.44250 | -74.22491 | 6002 ft | 291 kts | 162° |
| 2026-05-03 20:39 | 40.42356 | -74.21538 | 6017 ft | 292 kts | 162° |
| 2026-05-03 20:40 | 40.40436 | -74.20578 | 6593 ft | 297 kts | 162° |
| 2026-05-03 20:40 | 40.38506 | -74.19617 | 7475 ft | 297 kts | 162° |
| 2026-05-03 20:40 | 40.36560 | -74.18652 | 8279 ft | 300 kts | 162° |
| 2026-05-03 20:40 | 40.34682 | -74.17723 | 9055 ft | 303 kts | 162° |
| 2026-05-03 20:41 | 40.32735 | -74.16762 | 9796 ft | 308 kts | 162° |
| 2026-05-03 20:41 | 40.30690 | -74.15950 | 10338 ft | 310 kts | 175° |
| 2026-05-03 20:41 | 40.28695 | -74.15785 | 10580 ft | 329 kts | 185° |
| 2026-05-03 20:41 | 40.26331 | -74.15896 | 10812 ft | 356 kts | 187° |
| 2026-05-03 20:42 | 40.23799 | -74.16063 | 11429 ft | 371 kts | 187° |
| 2026-05-03 20:42 | 40.21302 | -74.16177 | 12310 ft | 378 kts | 186° |
| 2026-05-03 20:42 | 40.18693 | -74.16241 | 13754 ft | 372 kts | 186° |
| 2026-05-03 20:42 | 40.16096 | -74.16289 | 14789 ft | 375 kts | 186° |
| 2026-05-03 20:43 | 40.13723 | -74.16104 | 15362 ft | 387 kts | 172° |
| 2026-05-03 20:43 | 40.11289 | -74.14729 | 16037 ft | 407 kts | 147° |
| 2026-05-03 20:43 | 40.09375 | -74.12203 | 16874 ft | 417 kts | 123° |
| 2026-05-03 20:43 | 40.08203 | -74.08755 | 17740 ft | 416 kts | 103° |
| 2026-05-03 20:44 | 40.07483 | -74.05063 | 18356 ft | 425 kts | 102° |
| 2026-05-03 20:44 | 40.06803 | -74.01521 | 18980 ft | 432 kts | 102° |
| 2026-05-03 20:44 | 40.06066 | -73.97697 | 19812 ft | 436 kts | 102° |
| 2026-05-03 20:44 | 40.05314 | -73.93847 | 20615 ft | 440 kts | 102° |
| 2026-05-03 20:45 | 40.03994 | -73.87203 | 21843 ft | 449 kts | 102° |
| 2026-05-03 20:45 | 40.02470 | -73.79667 | 23230 ft | 461 kts | 103° |
| 2026-05-03 20:45 | 40.00799 | -73.71497 | 24559 ft | 470 kts | 103° |
| 2026-05-03 20:45 | 39.99092 | -73.63197 | 25963 ft | 477 kts | 104° |
| 2026-05-03 20:46 | 39.97353 | -73.54767 | 27191 ft | 486 kts | 105° |
| 2026-05-03 20:46 | 39.95582 | -73.46211 | 28387 ft | 493 kts | 105° |
| 2026-05-03 20:46 | 39.93774 | -73.37516 | 29507 ft | 501 kts | 106° |
| 2026-05-03 20:46 | 39.91932 | -73.28689 | 30446 ft | 509 kts | 106° |
| 2026-05-03 20:47 | 39.90051 | -73.19713 | 31134 ft | 518 kts | 107° |
| 2026-05-03 20:47 | 39.88129 | -73.10583 | 31759 ft | 527 kts | 107° |
| 2026-05-03 20:47 | 39.86170 | -73.01310 | 32345 ft | 536 kts | 107° |
| 2026-05-03 20:47 | 39.84188 | -72.91962 | 32956 ft | 543 kts | 107° |
| 2026-05-03 20:48 | 39.82140 | -72.82450 | 33456 ft | 549 kts | 109° |
| 2026-05-03 20:48 | 39.79729 | -72.73271 | 34216 ft | 547 kts | 112° |
| 2026-05-03 20:48 | 39.77367 | -72.64670 | 34809 ft | 548 kts | 112° |
| 2026-05-03 20:48 | 39.75578 | -72.58097 | 35266 ft | 548 kts | 113° |